Time;durP1;ratioP1;P1;durP2;ratioP2;P2;SDS_P1;SDS_P2;PMS_P1;PMS_P2;Temp;Humidity;BMP_temperature;BMP_pressure;BME280_temperature;BME280_humidity;BME280_pressure;Samples;Min_cycle;Max_cycle;Signal;HPM_P1;HPM_P2
2020/12/28 00:01:02;;;;;;;7.10;5.95;;;;;;;8.91;52.71;100381.36;1773816;79;21138;-66
2020/12/28 00:03:30;;;;;;;6.53;5.40;;;;;;;8.92;52.72;100368.94;1779277;79;21228;-67
2020/12/28 00:05:59;;;;;;;6.25;5.62;;;;;;;8.92;52.68;100371.09;1768976;79;21217;-66
2020/12/28 00:08:26;;;;;;;7.00;5.58;;;;;;;8.92;52.69;100372.91;1773682;79;21244;-65
2020/12/28 00:10:55;;;;;;;7.47;5.72;;;;;;;8.92;52.65;100364.46;1780505;79;21166;-66
2020/12/28 00:13:23;;;;;;;7.03;5.83;;;;;;;8.94;52.65;100372.27;1770834;79;21154;-67
2020/12/28 00:15:51;;;;;;;7.78;5.40;;;;;;;8.93;52.65;100358.20;1775184;79;21155;-67
2020/12/28 00:18:18;;;;;;;7.42;6.00;;;;;;;8.91;52.65;100345.58;1776195;80;21131;-66
2020/12/28 00:20:45;;;;;;;7.75;5.83;;;;;;;8.92;52.64;100352.53;1777885;80;23482;-66
2020/12/28 00:23:12;;;;;;;6.85;5.42;;;;;;;8.93;52.65;100349.42;1774012;80;21146;-67
2020/12/28 00:25:40;;;;;;;7.67;5.87;;;;;;;8.93;52.64;100376.75;1768717;80;21163;-65
2020/12/28 00:28:07;;;;;;;7.55;5.83;;;;;;;8.93;52.58;100350.74;1766846;79;21146;-66
2020/12/28 00:30:34;;;;;;;6.90;5.42;;;;;;;8.94;52.58;100353.72;1773199;79;21115;-65
2020/12/28 00:33:02;;;;;;;6.53;5.65;;;;;;;8.95;52.58;100342.16;1775314;79;22370;-66
2020/12/28 00:35:29;;;;;;;7.25;5.60;;;;;;;8.95;52.56;100350.11;1768160;80;21273;-66
2020/12/28 00:37:56;;;;;;;7.35;5.30;;;;;;;8.96;52.53;100341.16;1764706;80;21122;-68
2020/12/28 00:40:23;;;;;;;7.03;5.53;;;;;;;8.95;52.53;100358.06;1763595;80;21130;-65
2020/12/28 00:42:51;;;;;;;7.33;5.55;;;;;;;8.94;52.51;100341.30;1725000;82;21114;-65
2020/12/28 00:45:18;;;;;;;6.95;5.42;;;;;;;8.95;52.48;100330.23;1747126;81;21258;-66
2020/12/28 00:47:45;;;;;;;7.30;5.65;;;;;;;8.95;52.48;100324.44;1761651;80;21210;-66
2020/12/28 00:50:12;;;;;;;5.83;5.22;;;;;;;8.96;52.49;100335.40;1774267;79;21208;-66
2020/12/28 00:52:40;;;;;;;6.60;5.33;;;;;;;8.96;52.48;100325.27;1771002;80;21139;-67
2020/12/28 00:55:07;;;;;;;8.28;5.62;;;;;;;8.97;52.49;100317.67;1769485;79;21165;-66
2020/12/28 00:57:35;;;;;;;6.47;5.28;;;;;;;8.96;52.47;100314.66;1769347;79;21407;-66
2020/12/28 01:00:05;;;;;;;6.87;5.28;;;;;;;8.95;52.46;100309.86;1773863;80;21614;-67
2020/12/28 01:02:42;;;;;;;6.25;5.12;;;;;;;9.00;52.46;100299.68;1802286;79;27230;-67
2020/12/28 01:05:13;;;;;;;7.53;5.55;;;;;;;8.97;52.48;100313.70;1768361;80;21096;-66
2020/12/28 01:07:40;;;;;;;6.58;5.67;;;;;;;8.95;52.43;100301.91;1783289;78;21588;-66
2020/12/28 01:10:20;;;;;;;7.17;5.92;;;;;;;8.99;52.44;100292.70;1794835;79;28049;-66
2020/12/28 01:12:50;;;;;;;8.27;5.47;;;;;;;8.96;52.45;100288.17;1754813;80;21156;-66
2020/12/28 01:15:18;;;;;;;6.55;4.85;;;;;;;8.94;52.41;100288.30;1792743;78;23642;-67
2020/12/28 01:17:47;;;;;;;6.00;5.25;;;;;;;8.95;52.46;100299.27;1765802;80;21159;-67
2020/12/28 01:20:28;;;;;;;6.33;5.15;;;;;;;8.99;52.40;100277.29;1807090;78;28264;-66
2020/12/28 01:22:56;;;;;;;6.20;5.20;;;;;;;8.95;52.39;100278.56;1774321;80;21147;-66
2020/12/28 01:25:24;;;;;;;6.40;5.50;;;;;;;8.95;52.38;100280.72;1764275;80;21357;-66
2020/12/28 01:27:55;;;;;;;8.50;5.72;;;;;;;8.95;52.35;100280.72;1753984;80;21599;-67
2020/12/28 01:30:23;;;;;;;7.37;6.15;;;;;;;8.95;52.39;100272.77;1783581;79;21165;-68
2020/12/28 01:32:51;;;;;;;6.33;5.15;;;;;;;8.95;52.34;100265.31;1797405;79;21170;-66
2020/12/28 01:35:36;;;;;;;7.55;5.45;;;;;;;8.99;52.35;100241.52;1798929;79;28588;-68
2020/12/28 01:38:04;;;;;;;8.95;5.53;;;;;;;8.95;52.26;100248.91;1800122;78;21575;-67
2020/12/28 01:40:34;;;;;;;7.10;5.53;;;;;;;8.94;52.33;100245.91;1821180;78;22857;-65
2020/12/28 01:43:03;;;;;;;7.70;5.42;;;;;;;8.95;52.35;100247.59;1780138;80;21031;-65
2020/12/28 01:45:30;;;;;;;7.22;5.95;;;;;;;8.95;52.28;100252.89;1799742;78;21568;-66
2020/12/28 01:47:58;;;;;;;6.45;5.37;;;;;;;8.96;52.28;100247.09;1778597;78;21115;-65
2020/12/28 01:50:26;;;;;;;6.90;5.60;;;;;;;8.95;52.29;100262.17;1771687;79;21131;-66
2020/12/28 01:52:53;;;;;;;6.00;5.03;;;;;;;8.96;52.30;100241.80;1770758;79;21638;-65
2020/12/28 01:55:22;;;;;;;6.45;5.05;;;;;;;8.96;52.29;100241.33;1779491;79;21175;-66
2020/12/28 01:57:51;;;;;;;6.37;5.10;;;;;;;8.97;52.26;100237.68;1774187;79;21238;-65
2020/12/28 02:00:19;;;;;;;6.60;5.37;;;;;;;8.97;52.29;100231.55;1776214;78;21173;-65
2020/12/28 02:02:48;;;;;;;5.97;4.83;;;;;;;8.97;52.27;100219.63;1795445;78;21157;-65
2020/12/28 02:05:18;;;;;;;9.80;5.55;;;;;;;8.98;52.24;100217.30;1777483;78;21368;-66
2020/12/28 02:07:45;;;;;;;6.12;5.10;;;;;;;8.97;52.22;100220.95;1778982;79;21826;-67
2020/12/28 02:10:14;;;;;;;6.58;5.17;;;;;;;8.98;52.22;100223.93;1772481;79;21189;-67
2020/12/28 02:12:41;;;;;;;6.30;5.45;;;;;;;8.98;52.21;100221.28;1781004;79;21435;-66
2020/12/28 02:15:08;;;;;;;7.65;5.55;;;;;;;8.98;52.16;100238.04;1794134;78;21093;-68
2020/12/28 02:17:54;;;;;;;6.72;5.33;;;;;;;8.99;52.21;100217.66;1789336;78;21153;-67
2020/12/28 02:20:23;;;;;;;6.40;5.17;;;;;;;8.97;52.21;100210.35;1788654;78;21194;-66
2020/12/28 02:22:51;;;;;;;6.17;4.72;;;;;;;8.96;52.21;100209.53;1783730;79;21186;-67
2020/12/28 02:25:21;;;;;;;6.55;5.72;;;;;;;8.97;52.19;100204.55;1785368;79;21118;-67
2020/12/28 02:27:49;;;;;;;5.80;5.15;;;;;;;8.98;52.17;100211.54;1775340;79;21634;-66
2020/12/28 02:30:17;;;;;;;6.83;5.37;;;;;;;8.97;52.15;100194.45;1782301;79;21386;-65
2020/12/28 02:32:55;;;;;;;6.75;5.22;;;;;;;9.02;52.13;100206.75;1798855;78;28159;-66
2020/12/28 02:35:24;;;;;;;6.50;5.45;;;;;;;8.97;52.11;100217.80;1772307;80;21111;-66
2020/12/28 02:37:53;;;;;;;5.95;5.03;;;;;;;8.98;52.16;100201.41;1796890;78;21359;-66
2020/12/28 02:40:22;;;;;;;6.60;5.45;;;;;;;8.98;52.19;100210.68;1790218;78;21025;-67
2020/12/28 02:42:49;;;;;;;6.17;5.42;;;;;;;8.99;52.13;100213.69;1810579;78;21196;-68
2020/12/28 02:45:35;;;;;;;5.78;4.97;;;;;;;8.98;52.15;100209.36;1794156;78;21143;-67
2020/12/28 02:48:20;;;;;;;6.40;5.37;;;;;;;8.97;52.11;100205.05;1770938;80;21635;-67
2020/12/28 02:51:06;;;;;;;5.92;4.95;;;;;;;8.96;52.12;100186.14;1789670;80;21367;-68
2020/12/28 02:53:52;;;;;;;5.83;5.08;;;;;;;8.96;52.16;100204.69;1778477;80;21174;-67
2020/12/28 02:56:38;;;;;;;7.67;5.72;;;;;;;8.95;52.13;100205.69;1767597;79;21156;-67
2020/12/28 02:59:23;;;;;;;8.43;6.65;;;;;;;8.94;52.19;100196.06;1768029;79;21182;-66
2020/12/28 03:02:10;;;;;;;6.85;5.12;;;;;;;8.93;52.15;100185.95;1772216;79;21183;-67
2020/12/28 03:04:56;;;;;;;7.70;6.22;;;;;;;8.92;52.14;100183.45;1798201;79;21378;-68
2020/12/28 03:07:36;;;;;;;6.75;5.50;;;;;;;8.96;52.16;100191.45;1808822;78;28189;-67
2020/12/28 03:10:24;;;;;;;6.37;5.45;;;;;;;8.93;52.14;100186.45;1781050;80;21170;-68
2020/12/28 03:13:10;;;;;;;6.85;5.03;;;;;;;8.91;52.11;100189.25;1804443;78;21199;-68
2020/12/28 03:15:56;;;;;;;7.20;5.28;;;;;;;8.89;52.14;100179.28;1793488;78;21212;-67
2020/12/28 03:18:42;;;;;;;8.13;6.30;;;;;;;8.90;52.18;100177.47;1791440;78;21507;-67
2020/12/28 03:21:27;;;;;;;7.05;5.53;;;;;;;8.90;52.20;100169.52;1800781;78;21135;-68
2020/12/28 03:24:13;;;;;;;6.80;5.37;;;;;;;8.89;52.20;100181.11;1820160;78;21108;-67
2020/12/28 03:27:02;;;;;;;6.70;5.75;;;;;;;8.89;52.20;100181.11;1806403;78;21418;-67
2020/12/28 03:29:46;;;;;;;7.30;5.87;;;;;;;8.87;52.17;100163.20;1799491;78;21146;-67
2020/12/28 03:32:32;;;;;;;7.05;5.28;;;;;;;8.88;52.18;100162.20;1822298;78;21103;-67
2020/12/28 03:35:20;;;;;;;6.17;5.25;;;;;;;8.88;52.19;100168.83;1813115;78;21126;-66
2020/12/28 03:38:07;;;;;;;6.65;5.53;;;;;;;8.87;52.21;100166.68;1796122;78;21090;-67
2020/12/28 03:40:53;;;;;;;7.30;5.50;;;;;;;8.87;52.21;100171.16;1801723;78;21316;-67
2020/12/28 03:43:40;;;;;;;7.12;5.47;;;;;;;8.86;52.14;100170.30;1789873;78;21127;-67
2020/12/28 03:46:26;;;;;;;6.70;5.87;;;;;;;8.86;52.14;100166.32;1793485;78;21612;-68
2020/12/28 03:49:12;;;;;;;8.55;6.90;;;;;;;8.90;52.20;100157.59;1777545;79;28022;-67
2020/12/28 03:51:58;;;;;;;7.87;6.35;;;;;;;9.08;51.95;100162.45;1784962;80;21545;-67
2020/12/28 03:54:46;;;;;;;6.97;5.25;;;;;;;9.31;51.38;100156.25;1791747;80;21204;-67
2020/12/28 03:57:32;;;;;;;7.03;5.95;;;;;;;9.22;51.44;100156.64;1798550;78;21139;-67
2020/12/28 04:00:18;;;;;;;5.90;5.25;;;;;;;9.17;51.50;100148.30;1744850;80;21171;-67
2020/12/28 04:02:49;;;;;;;6.80;5.45;;;;;;;9.13;51.57;100141.63;1773644;80;21155;-66
2020/12/28 04:05:30;;;;;;;6.10;4.97;;;;;;;9.14;51.60;100130.05;1773986;79;28243;-66
2020/12/28 04:08:17;;;;;;;6.92;5.62;;;;;;;9.10;51.60;100133.13;1747580;80;21148;-66
2020/12/28 04:11:00;;;;;;;6.60;5.28;;;;;;;9.10;51.66;100126.04;1806324;79;28273;-66
2020/12/28 04:13:39;;;;;;;7.47;6.00;;;;;;;9.07;51.65;100135.60;1741908;80;21102;-66
2020/12/28 04:16:06;;;;;;;7.08;5.35;;;;;;;9.06;51.67;100139.25;1765956;80;21451;-66
2020/12/28 04:18:33;;;;;;;6.35;5.22;;;;;;;9.04;51.71;100163.24;1791516;79;21185;-67
2020/12/28 04:21:01;;;;;;;6.15;5.12;;;;;;;9.05;51.71;100133.59;1763428;80;21044;-66
2020/12/28 04:23:28;;;;;;;6.35;4.67;;;;;;;9.04;51.67;100127.97;1794038;79;21164;-67
2020/12/28 04:25:56;;;;;;;7.22;6.05;;;;;;;9.03;51.68;100133.73;1758160;80;21148;-67
2020/12/28 04:28:24;;;;;;;6.10;5.33;;;;;;;9.03;51.66;100111.20;1798857;79;21203;-67
2020/12/28 04:30:51;;;;;;;5.72;5.03;;;;;;;9.04;51.66;100109.41;1786381;79;21125;-67
2020/12/28 04:33:18;;;;;;;7.58;5.35;;;;;;;9.03;51.69;100113.86;1781527;79;21130;-66
2020/12/28 04:35:46;;;;;;;7.50;5.28;;;;;;;9.03;51.67;100105.91;1806117;79;21155;-68
2020/12/28 04:38:13;;;;;;;6.55;5.15;;;;;;;9.04;51.68;100114.22;1801435;79;21157;-66
2020/12/28 04:40:41;;;;;;;7.15;5.58;;;;;;;9.03;51.65;100100.61;1803739;79;21528;-67
2020/12/28 04:43:12;;;;;;;7.97;5.00;;;;;;;9.03;51.62;100102.43;1802503;79;21172;-66
2020/12/28 04:45:40;;;;;;;7.15;5.22;;;;;;;9.03;51.64;100089.18;1802316;79;21163;-66
2020/12/28 04:48:09;;;;;;;6.80;5.40;;;;;;;9.03;51.65;100097.13;1805582;79;21125;-66
2020/12/28 04:50:39;;;;;;;7.45;5.72;;;;;;;9.04;51.67;100078.94;1787885;79;21640;-66
2020/12/28 04:53:06;;;;;;;5.80;5.03;;;;;;;9.03;51.62;100070.63;1804124;79;21411;-66
2020/12/28 04:55:34;;;;;;;6.15;5.10;;;;;;;9.04;51.66;100084.23;1791890;79;21614;-65
2020/12/28 04:58:01;;;;;;;6.90;5.47;;;;;;;9.03;51.65;100085.20;1793328;79;21101;-65
2020/12/28 05:00:28;;;;;;;6.30;4.90;;;;;;;9.03;51.69;100066.16;1806780;79;21128;-67
2020/12/28 05:02:56;;;;;;;6.87;5.12;;;;;;;9.03;51.67;100076.75;1795901;79;21188;-65
2020/12/28 05:05:23;;;;;;;6.83;5.15;;;;;;;9.03;51.66;100083.38;1804156;79;21362;-66
2020/12/28 05:07:51;;;;;;;6.90;5.60;;;;;;;9.02;51.65;100072.92;1796896;79;21548;-67
2020/12/28 05:10:23;;;;;;;7.75;6.10;;;;;;;9.02;51.67;100069.80;1783572;79;21144;-66
2020/12/28 05:12:51;;;;;;;6.40;5.62;;;;;;;9.03;51.67;100069.30;1769432;79;21135;-65
2020/12/28 05:15:18;;;;;;;7.42;5.42;;;;;;;9.03;51.65;100063.50;1777044;79;21151;-67
2020/12/28 05:17:53;;;;;;;7.22;5.58;;;;;;;9.03;51.65;100074.10;1788124;79;21332;-65
2020/12/28 05:20:24;;;;;;;7.58;5.87;;;;;;;9.03;51.65;100087.86;1769349;79;21107;-66
2020/12/28 05:22:54;;;;;;;6.97;5.65;;;;;;;9.03;51.65;100080.73;1769137;79;21583;-68
2020/12/28 05:25:22;;;;;;;7.65;5.30;;;;;;;9.02;51.67;100080.41;1768970;79;21245;-66
2020/12/28 05:27:50;;;;;;;6.28;5.12;;;;;;;9.02;51.67;100067.63;1769004;79;21136;-66
2020/12/28 05:30:24;;;;;;;7.08;5.40;;;;;;;9.03;51.66;100081.23;1769057;79;21366;-66
2020/12/28 05:32:51;;;;;;;7.10;5.25;;;;;;;9.03;51.65;100085.20;1768973;79;21104;-66
2020/12/28 05:35:18;;;;;;;7.25;6.08;;;;;;;9.02;51.69;100074.25;1774705;79;21147;-65
2020/12/28 05:37:46;;;;;;;6.75;5.45;;;;;;;9.02;51.67;100082.20;1768870;79;21147;-65
2020/12/28 05:40:13;;;;;;;7.58;5.67;;;;;;;9.03;51.67;100086.53;1768966;79;21151;-65
2020/12/28 05:42:50;;;;;;;7.87;5.40;;;;;;;9.02;51.61;100088.36;1768818;79;21576;-67
2020/12/28 05:45:18;;;;;;;8.03;5.62;;;;;;;9.03;51.65;100097.13;1768542;79;21624;-66
2020/12/28 05:47:56;;;;;;;6.83;5.55;;;;;;;9.03;51.64;100077.25;1768884;79;21143;-67
2020/12/28 05:50:25;;;;;;;6.67;4.95;;;;;;;9.02;51.60;100081.73;1775366;79;21947;-66
2020/12/28 05:52:57;;;;;;;7.87;5.87;;;;;;;9.03;51.59;100090.50;1773766;79;21176;-67
2020/12/28 05:55:27;;;;;;;7.12;5.55;;;;;;;9.02;51.62;100088.36;1768446;79;21208;-67
2020/12/28 05:57:56;;;;;;;7.72;5.80;;;;;;;9.02;51.65;100086.17;1768985;79;21128;-66
2020/12/28 06:00:24;;;;;;;7.60;5.85;;;;;;;9.02;51.62;100107.38;1768865;79;21564;-66
2020/12/28 06:02:52;;;;;;;6.75;5.15;;;;;;;9.02;51.61;100101.61;1768927;79;21139;-68
2020/12/28 06:05:20;;;;;;;7.37;6.10;;;;;;;9.01;51.66;100095.95;1769107;79;21505;-67
2020/12/28 06:07:47;;;;;;;6.58;5.37;;;;;;;9.02;51.62;100082.20;1773977;79;21199;-67
2020/12/28 06:10:15;;;;;;;9.28;6.03;;;;;;;9.02;51.63;100084.37;1769558;79;21138;-67
2020/12/28 06:12:42;;;;;;;7.72;6.35;;;;;;;9.02;51.60;100080.41;1785540;79;21178;-67
2020/12/28 06:15:19;;;;;;;7.47;6.03;;;;;;;9.04;51.61;100069.66;1757580;79;21190;-66
2020/12/28 06:17:47;;;;;;;5.87;4.85;;;;;;;9.02;51.62;100068.48;1767787;79;21138;-64
2020/12/28 06:20:14;;;;;;;6.08;5.42;;;;;;;9.02;51.62;100080.41;1757643;79;21646;-69
2020/12/28 06:22:42;;;;;;;7.55;5.42;;;;;;;9.02;51.63;100094.98;1789116;79;21147;-66
2020/12/28 06:25:16;;;;;;;7.40;5.92;;;;;;;9.02;51.61;100079.08;1773975;79;21123;-66
2020/12/28 06:27:46;;;;;;;;;;;;;;;9.03;51.61;100084.70;1761355;79;21186;-67
2020/12/28 06:30:19;;;;;;;7.47;5.03;;;;;;;9.02;51.59;100089.68;1768566;79;20265;-67
2020/12/28 06:33:00;;;;;;;6.67;5.28;;;;;;;8.96;51.70;100081.01;1720278;82;21256;-66
2020/12/28 06:35:28;;;;;;;7.47;5.25;;;;;;;8.96;51.70;100065.58;1752258;80;21166;-67
2020/12/28 06:38:01;;;;;;;6.87;5.45;;;;;;;8.97;51.66;100062.78;1758204;79;21182;-67
2020/12/28 06:40:39;;;;;;;7.23;5.87;;;;;;;8.98;51.64;100049.03;1757760;79;21134;-68
2020/12/28 06:43:12;;;;;;;7.10;5.67;;;;;;;8.98;51.62;100056.52;1777222;79;22170;-67
2020/12/28 06:45:41;;;;;;;;;;;;;;;8.98;51.63;100063.14;1760070;79;21351;-66
2020/12/28 06:48:25;;;;;;;6.40;5.15;;;;;;;8.98;51.67;100051.22;1762368;79;20277;-67
2020/12/28 06:50:57;;;;;;;7.75;6.28;;;;;;;8.92;51.75;100055.77;1785971;79;21140;-67
2020/12/28 06:53:26;;;;;;;8.08;6.28;;;;;;;8.92;51.77;100062.89;1752372;79;22732;-66
2020/12/28 06:55:56;;;;;;;6.30;5.33;;;;;;;8.94;51.76;100043.70;1778265;79;21229;-66
2020/12/28 06:58:23;;;;;;;6.58;5.37;;;;;;;8.95;51.76;100040.91;1741779;79;21541;-67
2020/12/28 07:00:57;;;;;;;7.72;6.15;;;;;;;8.97;51.71;100047.39;1757492;79;21127;-68
2020/12/28 07:03:25;;;;;;;7.33;6.10;;;;;;;8.98;51.71;100047.70;1755721;79;21159;-65
2020/12/28 07:06:01;;;;;;;8.23;6.10;;;;;;;8.99;51.67;100045.41;1757455;79;21229;-67
2020/12/28 07:08:29;;;;;;;7.17;5.85;;;;;;;8.99;51.69;100035.64;1757239;79;21099;-66
2020/12/28 07:11:02;;;;;;;6.70;5.53;;;;;;;9.00;51.63;100045.74;1757395;79;21523;-66
2020/12/28 07:13:30;;;;;;;8.25;5.35;;;;;;;9.01;51.62;100031.02;1757366;79;21151;-66
2020/12/28 07:16:06;;;;;;;7.75;5.87;;;;;;;9.02;51.65;100047.75;1760836;79;21173;-66
2020/12/28 07:18:33;;;;;;;7.95;5.78;;;;;;;9.03;51.65;100036.18;1770114;79;21111;-66
2020/12/28 07:21:02;;;;;;;6.90;5.50;;;;;;;9.03;51.61;100026.41;1770429;79;21111;-67
2020/12/28 07:23:30;;;;;;;6.83;5.37;;;;;;;9.03;51.61;100021.10;1757494;79;21183;-67
2020/12/28 07:26:11;;;;;;;7.83;5.35;;;;;;;9.05;51.56;100020.95;1770447;79;21167;-67
2020/12/28 07:28:40;;;;;;;6.72;5.35;;;;;;;9.06;51.57;100033.23;1757528;79;21158;-67
2020/12/28 07:31:07;;;;;;;7.12;5.22;;;;;;;9.07;51.54;100015.02;1757379;79;21171;-68
2020/12/28 07:33:45;;;;;;;7.00;6.05;;;;;;;9.06;51.54;100005.41;1764054;79;21172;-68
2020/12/28 07:36:15;;;;;;;6.85;5.83;;;;;;;9.07;51.48;100007.06;1733101;79;21259;-66
2020/12/28 07:38:44;;;;;;;7.85;6.33;;;;;;;9.08;51.49;100026.44;1767867;79;21135;-65
2020/12/28 07:41:20;;;;;;;7.40;5.90;;;;;;;9.07;51.51;100011.54;1759182;79;21131;-67
2020/12/28 07:43:52;;;;;;;8.05;6.40;;;;;;;9.09;51.48;100009.06;1757502;79;21130;-67
2020/12/28 07:46:46;;;;;;;7.85;5.83;;;;;;;9.09;51.49;100018.34;1761374;79;21103;-65
2020/12/28 07:49:24;;;;;;;8.38;6.33;;;;;;;9.09;51.47;100024.97;1794129;79;23563;-66
2020/12/28 07:52:14;;;;;;;7.35;5.78;;;;;;;9.10;51.45;100017.38;1789187;79;21150;-67
2020/12/28 07:55:08;;;;;;;6.80;5.55;;;;;;;9.10;51.46;100013.86;1757429;79;21150;-65
2020/12/28 07:58:14;;;;;;;8.13;6.00;;;;;;;9.09;51.47;100001.61;1739540;81;21502;-66
2020/12/28 08:00:47;;;;;;;7.72;6.05;;;;;;;9.09;51.48;99990.52;1735216;81;21164;-67
2020/12/28 08:03:37;;;;;;;8.53;6.15;;;;;;;9.08;51.49;99993.31;1755206;81;21192;-66
2020/12/28 08:06:06;;;;;;;7.28;5.58;;;;;;;9.08;51.50;99989.33;1741536;81;21133;-66
2020/12/28 08:08:34;;;;;;;7.35;5.67;;;;;;;9.07;51.50;100000.44;1737951;81;21209;-65
2020/12/28 08:11:03;;;;;;;7.00;5.83;;;;;;;9.07;51.50;99988.51;1774638;79;21144;-67
2020/12/28 08:13:34;;;;;;;6.33;5.55;;;;;;;9.08;51.48;99994.16;1770499;79;21167;-67
2020/12/28 08:16:16;;;;;;;8.23;6.47;;;;;;;9.09;51.46;100013.04;1768284;79;21173;-66
2020/12/28 08:18:49;;;;;;;8.38;6.53;;;;;;;9.10;51.42;100003.27;1793208;79;21383;-67
2020/12/28 08:21:17;;;;;;;7.62;6.03;;;;;;;9.11;51.45;100005.77;1776018;79;21212;-67
2020/12/28 08:23:56;;;;;;;7.58;6.20;;;;;;;9.11;51.41;99993.84;1790382;79;21945;-66
2020/12/28 08:26:28;;;;;;;8.25;6.53;;;;;;;9.13;51.39;99995.02;1757435;79;21126;-66
2020/12/28 08:29:00;;;;;;;7.70;6.42;;;;;;;9.13;51.38;99997.67;1771443;79;21123;-66
2020/12/28 08:31:34;;;;;;;7.62;6.37;;;;;;;9.13;51.38;99991.87;1768472;79;21190;-67
2020/12/28 08:34:10;;;;;;;6.95;6.10;;;;;;;9.14;51.37;100002.83;1792383;79;21164;-66
2020/12/28 08:36:39;;;;;;;7.97;5.87;;;;;;;9.14;51.34;99998.85;1783462;79;21174;-67
2020/12/28 08:39:15;;;;;;;8.73;6.53;;;;;;;9.16;51.34;100014.11;1757440;79;21142;-66
2020/12/28 08:42:02;;;;;;;6.90;5.33;;;;;;;9.17;51.31;99991.08;1763795;79;21190;-66
2020/12/28 08:44:34;;;;;;;7.33;5.80;;;;;;;9.16;51.28;100006.16;1756153;79;21167;-66
2020/12/28 08:47:05;;;;;;;7.53;5.95;;;;;;;9.18;51.30;99994.91;1757382;79;21203;-66
2020/12/28 08:49:33;;;;;;;7.85;6.08;;;;;;;9.17;51.25;99991.08;1757303;79;22120;-67
2020/12/28 08:52:09;;;;;;;7.78;5.55;;;;;;;9.19;51.23;99959.95;1789175;79;21107;-67
2020/12/28 08:54:38;;;;;;;7.10;5.60;;;;;;;9.19;51.26;99973.20;1769111;79;22386;-66
2020/12/28 08:57:05;;;;;;;7.97;6.65;;;;;;;9.19;51.23;99958.62;1764161;79;21163;-67
2020/12/28 08:59:32;;;;;;;8.00;6.30;;;;;;;9.20;51.19;99938.59;1781832;79;21135;-67
2020/12/28 09:01:59;;;;;;;7.50;6.12;;;;;;;9.21;51.20;99953.52;1772970;79;21198;-66
2020/12/28 09:04:27;;;;;;;8.65;6.45;;;;;;;9.22;51.17;99953.84;1757521;79;21150;-66
2020/12/28 09:06:54;;;;;;;6.95;5.78;;;;;;;9.22;51.16;99937.94;1759293;79;21198;-67
2020/12/28 09:09:22;;;;;;;9.30;6.67;;;;;;;9.25;51.13;99946.07;1768609;79;21118;-68
2020/12/28 09:11:50;;;;;;;7.70;5.62;;;;;;;9.25;51.12;99928.84;1789175;79;21569;-67
2020/12/28 09:14:17;;;;;;;8.78;6.87;;;;;;;9.27;51.10;99919.41;1762014;79;21183;-66
2020/12/28 09:16:44;;;;;;;7.83;6.35;;;;;;;9.25;51.08;99912.46;1768288;79;21178;-66
2020/12/28 09:19:11;;;;;;;7.10;5.50;;;;;;;9.28;51.07;99907.33;1757878;79;21183;-66
2020/12/28 09:21:41;;;;;;;8.73;5.87;;;;;;;9.29;51.04;99905.03;1765115;79;21148;-67
2020/12/28 09:24:08;;;;;;;7.55;5.78;;;;;;;9.30;51.04;99904.53;1734611;79;21182;-67
2020/12/28 09:26:36;;;;;;;7.15;5.22;;;;;;;9.31;51.05;99899.08;1757805;79;21123;-65
2020/12/28 09:29:03;;;;;;;8.45;6.35;;;;;;;9.31;50.99;99884.97;1757804;79;21183;-66
2020/12/28 09:31:30;;;;;;;7.67;6.40;;;;;;;9.32;51.02;99909.18;1767558;79;21188;-65
2020/12/28 09:33:57;;;;;;;8.30;6.25;;;;;;;9.33;51.00;99906.38;1770285;79;21170;-67
2020/12/28 09:36:25;;;;;;;8.78;6.62;;;;;;;9.33;50.99;99926.27;1766625;79;21142;-66
2020/12/28 09:38:52;;;;;;;7.03;5.60;;;;;;;9.34;50.93;99900.08;1757776;79;21118;-66
2020/12/28 09:41:20;;;;;;;7.75;6.45;;;;;;;9.34;50.97;99890.80;1757862;79;21104;-66
2020/12/28 09:43:47;;;;;;;9.13;6.40;;;;;;;9.34;50.95;99873.56;1757735;79;21717;-67
2020/12/28 09:46:21;;;;;;;7.47;6.22;;;;;;;9.35;50.92;99873.06;1757768;79;21190;-67
2020/12/28 09:48:49;;;;;;;7.55;6.03;;;;;;;9.36;50.92;99878.72;1768481;79;21127;-67
2020/12/28 09:53:17;;;;;;;6.95;5.62;;;;;;;9.41;50.88;99871.13;1803103;76;28683;-66
2020/12/28 09:55:44;;;;;;;8.25;6.12;;;;;;;9.32;50.97;99868.09;1782228;79;21107;-67
2020/12/28 09:58:11;;;;;;;7.35;6.00;;;;;;;9.34;50.94;99870.09;1811403;79;21187;-67
2020/12/28 10:00:38;;;;;;;7.62;6.12;;;;;;;9.35;50.92;99868.61;1811829;79;21151;-65
2020/12/28 10:03:06;;;;;;;8.15;6.60;;;;;;;9.36;50.92;99882.69;1811598;79;21035;-66
2020/12/28 10:05:33;;;;;;;7.65;5.75;;;;;;;9.36;50.94;99872.91;1803570;79;21158;-67
2020/12/28 10:08:00;;;;;;;6.83;5.62;;;;;;;9.36;50.91;99866.78;1797133;79;21177;-67
2020/12/28 10:10:27;;;;;;;7.62;5.90;;;;;;;9.37;50.87;99862.66;1811875;79;22162;-68
2020/12/28 10:12:55;;;;;;;8.13;5.92;;;;;;;9.37;50.89;99869.78;1811683;79;21126;-66
2020/12/28 10:15:22;;;;;;;6.50;5.45;;;;;;;9.37;50.87;99841.44;1811841;79;21125;-67
2020/12/28 10:18:23;;;;;;;7.97;6.17;;;;;;;9.38;50.88;99841.77;1807899;79;21526;-67
2020/12/28 10:20:51;;;;;;;6.87;5.70;;;;;;;9.39;50.89;99847.92;1777682;79;21117;-67
2020/12/28 10:23:18;;;;;;;7.47;5.97;;;;;;;9.37;50.91;99840.63;1793616;79;21348;-67
2020/12/28 10:25:47;;;;;;;6.80;5.67;;;;;;;9.36;50.89;99838.44;1772920;79;21142;-67
2020/12/28 10:28:14;;;;;;;7.85;6.15;;;;;;;9.37;50.89;99830.84;1788952;79;21574;-67
2020/12/28 10:30:41;;;;;;;8.63;6.47;;;;;;;9.38;50.89;99830.34;1768947;80;21165;-66
2020/12/28 10:33:08;;;;;;;7.95;6.28;;;;;;;9.37;50.88;99816.25;1754276;80;21156;-66
2020/12/28 10:35:35;;;;;;;7.33;5.22;;;;;;;9.37;50.89;99816.76;1769792;81;21382;-65
2020/12/28 10:38:02;;;;;;;6.65;5.95;;;;;;;9.37;50.91;99810.95;1789113;79;21630;-66
2020/12/28 10:40:30;;;;;;;6.92;6.00;;;;;;;9.38;50.88;99809.13;1790560;79;21151;-66
2020/12/28 10:42:59;;;;;;;6.55;5.55;;;;;;;9.38;50.87;99805.14;1796377;79;21480;-67
2020/12/28 10:45:27;;;;;;;6.97;6.03;;;;;;;9.37;50.89;99796.88;1759028;80;21180;-66
2020/12/28 10:47:54;;;;;;;7.70;6.30;;;;;;;9.37;50.91;99791.56;1769273;81;21153;-66
2020/12/28 10:50:21;;;;;;;7.28;5.78;;;;;;;9.37;50.94;99791.56;1764312;80;21158;-66
2020/12/28 10:52:49;;;;;;;9.65;5.87;;;;;;;9.36;50.94;99792.04;1764678;80;21348;-66
2020/12/28 10:55:16;;;;;;;7.22;5.60;;;;;;;9.35;50.95;99776.28;1762736;81;21166;-65
2020/12/28 10:57:44;;;;;;;7.97;5.85;;;;;;;9.36;50.98;99788.56;1746635;81;21162;-66
2020/12/28 11:00:11;;;;;;;7.80;5.95;;;;;;;9.35;50.98;99794.84;1757342;81;21207;-67
2020/12/28 11:02:39;;;;;;;8.03;6.22;;;;;;;9.35;50.99;99795.70;1761111;81;21629;-66
2020/12/28 11:05:06;;;;;;;7.33;5.90;;;;;;;9.35;50.99;99785.56;1744717;81;21178;-66
2020/12/28 11:07:34;;;;;;;6.92;5.58;;;;;;;9.34;51.01;99782.09;1767756;81;21664;-66
2020/12/28 11:10:01;;;;;;;6.42;5.65;;;;;;;9.35;51.05;99774.96;1767873;81;21143;-66
2020/12/28 11:12:28;;;;;;;7.40;5.92;;;;;;;9.34;51.05;99777.30;1760810;81;21374;-67
2020/12/28 11:14:55;;;;;;;7.15;6.03;;;;;;;9.34;51.06;99756.08;1763540;81;21140;-66
2020/12/28 11:17:22;;;;;;;7.50;5.58;;;;;;;9.33;51.08;99749.10;1742872;82;21160;-67
2020/12/28 11:19:50;;;;;;;7.65;6.40;;;;;;;9.34;51.09;99749.45;1764205;81;21204;-68
2020/12/28 11:22:18;;;;;;;6.95;5.80;;;;;;;9.34;51.08;99748.13;1766580;81;21110;-67
2020/12/28 11:24:45;;;;;;;7.45;6.00;;;;;;;9.33;51.09;99746.45;1764690;81;21205;-67
2020/12/28 11:27:12;;;;;;;7.58;5.75;;;;;;;9.35;51.11;99741.34;1759703;81;21170;-66
2020/12/28 11:29:41;;;;;;;7.97;6.05;;;;;;;9.36;51.10;99736.87;1748338;81;21159;-65
2020/12/28 11:32:08;;;;;;;8.75;5.85;;;;;;;9.36;51.10;99713.00;1747254;81;21626;-66
2020/12/28 11:34:35;;;;;;;7.95;6.15;;;;;;;9.37;51.11;99721.31;1762369;81;21126;-67
2020/12/28 11:37:04;;;;;;;7.65;5.42;;;;;;;9.35;51.11;99705.55;1739920;81;21344;-67
2020/12/28 11:39:31;;;;;;;7.33;5.58;;;;;;;9.35;51.14;99706.88;1733987;82;21159;-66
2020/12/28 11:41:59;;;;;;;7.72;6.03;;;;;;;9.36;51.12;99701.90;1802768;79;21153;-66
2020/12/28 11:44:26;;;;;;;7.30;6.30;;;;;;;9.36;51.13;99710.36;1816253;79;21149;-65
2020/12/28 11:46:55;;;;;;;9.53;6.50;;;;;;;9.36;51.14;99698.42;1815719;79;21137;-66
2020/12/28 11:49:23;;;;;;;7.85;6.10;;;;;;;9.36;51.17;99674.56;1808608;79;23344;-66
2020/12/28 11:51:53;;;;;;;7.53;6.28;;;;;;;9.36;51.14;99681.19;1778430;79;21357;-66
2020/12/28 11:54:23;;;;;;;9.20;6.15;;;;;;;9.36;51.17;99675.89;1798439;79;21126;-66
2020/12/28 11:56:50;;;;;;;8.65;6.67;;;;;;;9.36;51.17;99670.08;1803877;79;21192;-67
2020/12/28 11:59:17;;;;;;;8.05;6.42;;;;;;;9.37;51.19;99677.56;1781427;79;21120;-66